createdAt,value
2023-04-17T00:00:58.893Z,0.37
2023-04-17T00:01:58.962Z,0.66
2023-04-17T00:02:59.110Z,0.53
2023-04-17T00:03:59.106Z,0.43
2023-04-17T00:04:59.169Z,0.59
2023-04-17T00:05:59.229Z,0.60
2023-04-17T00:06:59.244Z,0.47
2023-04-17T00:07:59.272Z,0.54
2023-04-17T00:08:59.284Z,0.59
2023-04-17T00:09:59.310Z,0.79
2023-04-17T00:11:07.047Z,0.57
2023-04-17T00:12:00.353Z,0.48
2023-04-17T00:12:59.406Z,0.86
2023-04-17T00:13:59.340Z,0.66
2023-04-17T00:14:59.358Z,0.68
2023-04-17T00:15:59.373Z,0.55
2023-04-17T00:16:59.320Z,0.44
2023-04-17T00:17:59.322Z,0.44
2023-04-17T00:18:59.316Z,0.51
2023-04-17T00:19:59.286Z,0.34
2023-04-17T00:20:59.357Z,0.35
2023-04-17T00:21:59.340Z,0.58
2023-04-17T00:22:59.392Z,0.44
2023-04-17T00:23:59.406Z,0.54
2023-04-17T00:24:59.469Z,0.43
2023-04-17T00:25:59.492Z,0.43
2023-04-17T00:26:59.555Z,0.43
2023-04-17T00:27:59.551Z,0.61
2023-04-17T00:28:59.570Z,0.60
2023-04-17T00:29:59.688Z,0.50
2023-04-17T00:30:59.703Z,0.40
2023-04-17T00:31:59.747Z,0.46
2023-04-17T00:32:59.909Z,0.75
2023-04-17T00:33:59.859Z,0.62
2023-04-17T00:34:59.938Z,0.57
2023-04-17T00:35:59.935Z,0.37
2023-04-17T00:36:59.954Z,0.49
2023-04-17T00:37:59.981Z,0.56
2023-04-17T00:38:59.986Z,0.46
2023-04-17T00:40:00.025Z,0.46
2023-04-17T00:41:00.029Z,0.55
2023-04-17T00:42:00.118Z,0.45
2023-04-17T00:43:00.127Z,0.55
2023-04-17T00:44:00.170Z,0.43
2023-04-17T00:45:00.205Z,0.63
2023-04-17T00:46:00.267Z,0.49
2023-04-17T00:47:00.267Z,0.59
2023-04-17T00:48:00.412Z,0.46
2023-04-17T00:49:00.332Z,0.65
2023-04-17T00:50:00.360Z,0.43
2023-04-17T00:51:00.375Z,0.69
2023-04-17T00:52:00.487Z,0.31
2023-04-17T00:53:00.476Z,0.41
2023-04-17T00:54:00.533Z,0.47
2023-04-17T00:55:00.727Z,0.70
2023-04-17T00:56:00.565Z,0.42
2023-04-17T00:57:00.580Z,0.46
2023-04-17T00:58:00.603Z,0.44
2023-04-17T00:59:00.666Z,0.50
2023-04-17T01:00:00.754Z,0.59
2023-04-17T01:01:00.893Z,0.56
2023-04-17T01:02:00.965Z,0.58
2023-04-17T01:03:01.049Z,0.36
2023-04-17T01:04:00.985Z,0.32
2023-04-17T01:05:00.993Z,0.40
2023-04-17T01:06:01.030Z,0.48
2023-04-17T01:07:01.069Z,0.52
2023-04-17T01:08:01.136Z,0.41
2023-04-17T01:09:01.133Z,0.34
2023-04-17T01:10:01.196Z,0.54
2023-04-17T01:11:01.223Z,0.54
2023-04-17T01:12:01.273Z,0.56
2023-04-17T01:13:01.271Z,0.75
2023-04-17T01:14:01.303Z,0.72
2023-04-17T01:15:01.329Z,0.43
2023-04-17T01:16:01.332Z,0.36
2023-04-17T01:17:01.423Z,0.26
2023-04-17T01:18:01.473Z,0.50
2023-04-17T01:19:01.497Z,0.34
2023-04-17T01:20:01.570Z,0.39
2023-04-17T01:21:01.626Z,0.30
2023-04-17T01:22:01.611Z,0.54
2023-04-17T01:23:01.680Z,0.49
2023-04-17T01:24:01.648Z,0.45
2023-04-17T01:25:01.683Z,0.42
2023-04-17T01:26:01.734Z,0.31
2023-04-17T01:27:01.710Z,0.55
2023-04-17T01:28:01.780Z,0.64
2023-04-17T01:29:01.846Z,0.51
2023-04-17T01:30:02.057Z,0.48
2023-04-17T01:31:02.068Z,0.50
2023-04-17T01:32:02.136Z,0.59
2023-04-17T01:33:02.360Z,0.59
2023-04-17T01:34:02.197Z,0.50
2023-04-17T01:35:02.256Z,0.64
2023-04-17T01:36:02.264Z,0.45
2023-04-17T01:37:02.349Z,0.46
2023-04-17T01:38:02.272Z,0.85
2023-04-17T01:39:02.335Z,0.46
2023-04-17T01:40:02.363Z,0.44
2023-04-17T01:41:02.409Z,0.41
2023-04-17T01:42:02.484Z,0.39
2023-04-17T01:43:02.596Z,0.41
2023-04-17T01:44:02.638Z,0.38
2023-04-17T01:45:02.702Z,0.47
2023-04-17T01:46:02.856Z,0.37
2023-04-17T01:47:02.891Z,0.68
2023-04-17T01:48:03.057Z,0.46
2023-04-17T01:49:03.026Z,0.40
2023-04-17T01:50:03.040Z,0.35
2023-04-17T01:51:03.085Z,0.33
2023-04-17T01:52:03.076Z,0.66
2023-04-17T01:53:03.166Z,0.55
2023-04-17T01:54:03.197Z,0.45
2023-04-17T01:55:03.213Z,0.65
2023-04-17T01:56:03.220Z,0.33
2023-04-17T01:57:03.245Z,0.48
2023-04-17T01:58:03.302Z,0.40
2023-04-17T01:59:03.421Z,0.52
2023-04-17T02:00:03.395Z,0.39
2023-04-17T02:01:03.465Z,0.66
2023-04-17T02:02:03.523Z,0.56
2023-04-17T02:03:03.572Z,0.38
2023-04-17T02:04:03.567Z,0.44
2023-04-17T02:05:03.540Z,0.38
2023-04-17T02:06:03.667Z,0.54
2023-04-17T02:07:03.593Z,0.53
2023-04-17T02:08:03.643Z,0.58
2023-04-17T02:09:03.623Z,0.32
2023-04-17T02:10:03.706Z,0.48
2023-04-17T02:11:03.700Z,0.68
2023-04-17T02:12:03.714Z,0.54
2023-04-17T02:13:03.722Z,0.65
2023-04-17T02:14:03.802Z,0.57
2023-04-17T02:15:03.822Z,0.40
2023-04-17T02:16:03.917Z,0.43
2023-04-17T02:17:03.859Z,0.56
2023-04-17T02:18:03.922Z,0.56
2023-04-17T02:19:03.892Z,0.43
2023-04-17T02:20:03.892Z,0.51
2023-04-17T02:21:03.938Z,0.39
2023-04-17T02:22:04.009Z,0.49
2023-04-17T02:23:04.009Z,0.62
2023-04-17T02:24:04.044Z,0.61
2023-04-17T02:25:04.052Z,0.39
2023-04-17T02:26:04.073Z,0.35
2023-04-17T02:27:04.084Z,0.53
2023-04-17T02:28:04.114Z,0.45
2023-04-17T02:29:04.180Z,0.23
2023-04-17T02:30:04.192Z,0.26
2023-04-17T02:31:04.253Z,0.39
2023-04-17T02:32:04.227Z,0.37
2023-04-17T02:33:04.323Z,0.61
2023-04-17T02:34:04.282Z,0.49
2023-04-17T02:35:04.358Z,0.60
2023-04-17T02:36:04.359Z,0.36
2023-04-17T02:37:04.433Z,0.48
2023-04-17T02:38:04.481Z,0.30
2023-04-17T02:39:04.508Z,0.41
2023-04-17T02:40:04.536Z,0.43
2023-04-17T02:41:04.548Z,0.47
2023-04-17T02:42:04.581Z,0.57
2023-04-17T02:43:04.583Z,0.50
2023-04-17T02:44:04.613Z,0.36
2023-04-17T02:45:04.622Z,0.43
2023-04-17T02:46:04.658Z,0.41
2023-04-17T02:47:04.755Z,0.41
2023-04-17T02:48:04.724Z,0.24
2023-04-17T02:49:04.712Z,0.33
2023-04-17T02:50:04.738Z,0.49
2023-04-17T02:51:04.824Z,0.53
2023-04-17T02:52:04.805Z,0.42
2023-04-17T02:53:04.882Z,0.42
2023-04-17T02:54:04.904Z,0.74
2023-04-17T02:55:04.914Z,0.34
2023-04-17T02:56:04.945Z,0.28
2023-04-17T02:57:04.948Z,0.55
2023-04-17T02:58:04.980Z,0.25
2023-04-17T02:59:04.986Z,0.30
2023-04-17T03:00:05.015Z,0.18
2023-04-17T03:01:05.172Z,0.54
2023-04-17T03:02:05.247Z,0.61
2023-04-17T03:03:05.398Z,0.42
2023-04-17T03:04:05.533Z,0.59
2023-04-17T03:05:05.421Z,0.42
2023-04-17T03:06:05.381Z,0.41
2023-04-17T03:07:05.442Z,0.29
2023-04-17T03:08:05.482Z,0.34
2023-04-17T03:09:05.500Z,0.39
2023-04-17T03:10:05.564Z,0.39
2023-04-17T03:11:05.580Z,0.35
2023-04-17T03:12:05.593Z,0.38
2023-04-17T03:13:05.616Z,0.59
2023-04-17T03:14:05.642Z,0.41
2023-04-17T03:15:07.575Z,0.51
2023-04-17T03:16:05.764Z,0.50
2023-04-17T03:17:05.692Z,0.58
2023-04-17T03:18:05.777Z,0.57
2023-04-17T03:19:05.673Z,0.41
2023-04-17T03:20:05.693Z,0.45
2023-04-17T03:21:05.668Z,0.34
2023-04-17T03:22:05.682Z,0.86
2023-04-17T03:23:05.649Z,0.65
2023-04-17T03:24:05.672Z,0.38
2023-04-17T03:25:05.648Z,0.42
2023-04-17T03:26:05.657Z,0.39
2023-04-17T03:27:05.619Z,0.61
2023-04-17T03:28:05.634Z,0.34
2023-04-17T03:29:05.609Z,0.43
2023-04-17T03:30:05.621Z,0.46
2023-04-17T03:31:05.599Z,0.44
2023-04-17T03:32:05.665Z,0.48
2023-04-17T03:33:05.675Z,0.44
2023-04-17T03:34:05.627Z,0.32
2023-04-17T03:35:05.559Z,0.28
2023-04-17T03:36:05.590Z,0.58
2023-04-17T03:37:05.560Z,0.58
2023-04-17T03:38:05.695Z,0.31
2023-04-17T03:39:05.533Z,0.37
2023-04-17T03:40:05.563Z,0.33
2023-04-17T03:41:05.521Z,0.30
2023-04-17T03:42:05.547Z,0.37
2023-04-17T03:43:05.507Z,0.33
2023-04-17T03:44:05.528Z,0.57
2023-04-17T03:45:05.499Z,0.53
2023-04-17T03:46:05.546Z,0.37
2023-04-17T03:47:05.480Z,0.54
2023-04-17T03:48:05.517Z,0.44
2023-04-17T03:49:05.472Z,0.51
2023-04-17T03:50:05.487Z,0.61
2023-04-17T03:51:05.465Z,0.48
2023-04-17T03:52:05.483Z,0.25
2023-04-17T03:53:05.452Z,0.38
2023-04-17T03:54:05.424Z,0.43
2023-04-17T03:55:05.431Z,0.32
2023-04-17T03:56:05.440Z,0.39
2023-04-17T03:57:05.414Z,0.30
2023-04-17T03:58:05.424Z,0.48
2023-04-17T03:59:05.398Z,0.45
2023-04-17T04:00:05.417Z,0.44
2023-04-17T04:01:05.379Z,0.40
2023-04-17T04:02:05.512Z,0.51
2023-04-17T04:03:05.672Z,0.21
2023-04-17T04:04:05.543Z,0.37
2023-04-17T04:05:05.384Z,0.54
2023-04-17T04:06:05.472Z,0.33
2023-04-17T04:07:05.415Z,0.50
2023-04-17T04:08:05.361Z,0.28
2023-04-17T04:09:05.344Z,0.65
2023-04-17T04:10:05.309Z,0.34
2023-04-17T04:11:05.304Z,0.31
2023-04-17T04:12:05.333Z,0.32
2023-04-17T04:13:05.307Z,0.33
2023-04-17T04:14:05.310Z,0.42
2023-04-17T04:15:05.288Z,0.55
2023-04-17T04:16:05.320Z,0.46
2023-04-17T04:17:05.267Z,0.41
2023-04-17T04:18:05.310Z,0.40
2023-04-17T04:19:05.255Z,0.54
2023-04-17T04:20:05.278Z,0.48
2023-04-17T04:21:05.235Z,0.51
2023-04-17T04:22:06.899Z,0.50
2023-04-17T04:23:05.216Z,0.59
2023-04-17T04:24:05.204Z,0.64
2023-04-17T04:25:05.205Z,0.52
2023-04-17T04:26:05.229Z,0.47
2023-04-17T04:27:05.286Z,0.39
2023-04-17T04:28:05.264Z,0.29
2023-04-17T04:29:05.334Z,0.32
2023-04-17T04:30:05.401Z,0.45
2023-04-17T04:31:05.457Z,0.45
2023-04-17T04:32:05.453Z,0.40
2023-04-17T04:33:05.559Z,0.32
2023-04-17T04:34:05.530Z,0.25
2023-04-17T04:35:05.552Z,0.39
2023-04-17T04:36:05.564Z,0.46
2023-04-17T04:37:05.614Z,0.46
2023-04-17T04:38:05.650Z,0.29
2023-04-17T04:39:05.631Z,0.56
2023-04-17T04:40:05.653Z,0.53
2023-04-17T04:41:05.692Z,0.41
2023-04-17T04:42:05.726Z,0.50
2023-04-17T04:43:05.769Z,0.35
2023-04-17T04:44:05.821Z,0.51
2023-04-17T04:45:05.908Z,0.56
2023-04-17T04:46:06.006Z,0.44
2023-04-17T04:47:06.097Z,0.53
2023-04-17T04:48:06.219Z,0.30
2023-04-17T04:49:06.222Z,0.47
2023-04-17T04:50:06.245Z,0.60
2023-04-17T04:51:06.311Z,0.48
2023-04-17T04:52:06.326Z,0.50
2023-04-17T04:53:06.343Z,0.44
2023-04-17T04:54:06.311Z,0.43
2023-04-17T04:55:06.325Z,0.49
2023-04-17T04:56:06.362Z,0.50
2023-04-17T04:57:06.368Z,0.41
2023-04-17T04:58:06.392Z,0.36
2023-04-17T04:59:06.409Z,0.45
2023-04-17T05:00:06.519Z,0.74
2023-04-17T05:01:06.572Z,0.48
2023-04-17T05:02:06.567Z,0.76
2023-04-17T05:03:07.253Z,0.54
2023-04-17T05:04:06.842Z,0.47
2023-04-17T05:05:06.764Z,0.36
2023-04-17T05:06:06.742Z,0.37
2023-04-17T05:07:06.751Z,0.40
2023-04-17T05:08:06.833Z,0.42
2023-04-17T05:09:07.032Z,0.68
2023-04-17T05:10:06.869Z,0.43
2023-04-17T05:11:07.047Z,0.67
2023-04-17T05:12:06.961Z,0.50
2023-04-17T05:13:07.045Z,0.31
2023-04-17T05:14:07.046Z,0.29
2023-04-17T05:15:07.065Z,0.53
2023-04-17T05:16:07.494Z,0.47
2023-04-17T05:17:07.144Z,0.40
2023-04-17T05:18:07.480Z,0.64
2023-04-17T05:19:07.974Z,0.56
2023-04-17T05:20:07.214Z,0.29
2023-04-17T05:21:07.227Z,0.68
2023-04-17T05:22:07.184Z,0.44
2023-04-17T05:23:07.226Z,0.65
2023-04-17T05:24:07.290Z,0.54
2023-04-17T05:25:07.253Z,0.39
2023-04-17T05:26:07.398Z,0.65
2023-04-17T05:27:07.394Z,0.45
2023-04-17T05:28:07.408Z,0.37
2023-04-17T05:29:07.444Z,0.67
2023-04-17T05:30:07.518Z,0.47
2023-04-17T05:31:07.558Z,0.61
2023-04-17T05:32:07.782Z,0.45
2023-04-17T05:33:07.706Z,0.46
2023-04-17T05:34:07.677Z,0.56
2023-04-17T05:35:07.692Z,0.43
2023-04-17T05:36:07.816Z,0.43
2023-04-17T05:37:07.821Z,0.49
2023-04-17T05:38:08.120Z,0.61
2023-04-17T05:39:07.930Z,1.53
2023-04-17T05:40:07.929Z,0.66
2023-04-17T05:41:07.944Z,0.67
2023-04-17T05:42:08.012Z,0.97
2023-04-17T05:43:08.514Z,0.75
2023-04-17T05:44:07.989Z,1.36
2023-04-17T05:45:07.975Z,0.83
2023-04-17T05:46:08.570Z,1.34
2023-04-17T05:47:08.012Z,0.75
2023-04-17T05:48:08.972Z,0.97
2023-04-17T05:49:08.081Z,1.05
2023-04-17T05:50:08.132Z,1.03
2023-04-17T05:51:08.203Z,1.19
2023-04-17T05:52:08.261Z,2.45
2023-04-17T05:53:08.330Z,1.44
2023-04-17T05:54:08.373Z,1.05
2023-04-17T05:55:08.428Z,1.57
2023-04-17T05:56:08.496Z,1.37
2023-04-17T05:57:08.501Z,1.59
2023-04-17T05:58:22.997Z,1.55
2023-04-17T05:59:09.662Z,1.49
2023-04-17T06:00:08.513Z,1.36
2023-04-17T06:01:08.491Z,1.11
2023-04-17T06:02:08.615Z,1.89
2023-04-17T06:03:08.707Z,2.20
2023-04-17T06:04:08.937Z,1.65
2023-04-17T06:05:08.675Z,1.70
2023-04-17T06:06:08.478Z,1.64
2023-04-17T06:07:08.499Z,1.25
2023-04-17T06:08:08.463Z,2.00
2023-04-17T06:09:08.531Z,1.66
2023-04-17T06:10:08.461Z,2.25
2023-04-17T06:11:08.479Z,1.51
2023-04-17T06:12:08.496Z,1.80
2023-04-17T06:13:08.429Z,1.27
2023-04-17T06:14:08.424Z,1.56
2023-04-17T06:15:08.985Z,2.45
2023-04-17T06:16:08.400Z,1.84
2023-04-17T06:17:08.513Z,1.24
2023-04-17T06:18:08.514Z,2.09
2023-04-17T06:19:08.579Z,1.49
2023-04-17T06:20:08.637Z,1.87
2023-04-17T06:21:08.679Z,1.71
2023-04-17T06:22:08.749Z,1.84
2023-04-17T06:23:09.037Z,1.81
2023-04-17T06:24:08.903Z,2.36
2023-04-17T06:25:08.919Z,3.91
2023-04-17T06:26:09.002Z,1.33
2023-04-17T06:27:09.171Z,2.13
2023-04-17T06:28:09.218Z,2.22
2023-04-17T06:29:09.186Z,2.27
2023-04-17T06:30:09.350Z,1.92
2023-04-17T06:31:09.305Z,2.77
2023-04-17T06:32:09.322Z,1.99
2023-04-17T06:33:09.411Z,1.65
2023-04-17T06:34:09.518Z,2.63
2023-04-17T06:35:09.459Z,3.22
2023-04-17T06:36:09.526Z,2.48
2023-04-17T06:37:09.571Z,2.38
2023-04-17T06:38:09.628Z,3.66
2023-04-17T06:39:09.852Z,2.54
2023-04-17T06:40:09.756Z,2.25
2023-04-17T06:41:09.858Z,2.85
2023-04-17T06:42:10.023Z,2.00
2023-04-17T06:43:09.854Z,2.26
2023-04-17T06:44:09.811Z,2.41
2023-04-17T06:45:09.821Z,2.62
2023-04-17T06:46:09.860Z,2.06
2023-04-17T06:47:09.869Z,2.24
2023-04-17T06:48:09.879Z,2.19
2023-04-17T06:49:10.120Z,2.44
2023-04-17T06:50:09.950Z,1.99
2023-04-17T06:51:09.972Z,2.55
2023-04-17T06:52:10.033Z,1.75
2023-04-17T06:53:10.056Z,2.04
2023-04-17T06:54:10.533Z,2.23
2023-04-17T06:55:10.213Z,2.50
2023-04-17T06:56:10.278Z,2.30
2023-04-17T06:57:10.280Z,1.93
2023-04-17T06:58:10.308Z,1.79
2023-04-17T06:59:10.602Z,2.62
2023-04-17T07:00:10.356Z,1.64
2023-04-17T07:01:10.546Z,2.26
2023-04-17T07:02:10.424Z,2.21
2023-04-17T07:03:10.393Z,1.99
2023-04-17T07:04:10.581Z,1.81
2023-04-17T07:05:10.418Z,1.87
2023-04-17T07:06:10.503Z,1.89
2023-04-17T07:07:10.601Z,1.59
2023-04-17T07:08:10.583Z,2.05
2023-04-17T07:09:10.704Z,1.49
2023-04-17T07:10:10.660Z,1.54
2023-04-17T07:11:10.652Z,1.51
2023-04-17T07:12:10.670Z,1.81
2023-04-17T07:13:10.649Z,1.38
2023-04-17T07:14:12.804Z,1.25
2023-04-17T07:15:10.669Z,1.83
2023-04-17T07:16:10.674Z,1.65
2023-04-17T07:17:10.789Z,1.51
2023-04-17T07:18:10.805Z,1.62
2023-04-17T07:19:11.035Z,1.93
2023-04-17T07:20:10.854Z,1.81
2023-04-17T07:21:10.893Z,1.91
2023-04-17T07:22:11.096Z,1.66
2023-04-17T07:23:11.034Z,1.93
2023-04-17T07:24:11.068Z,1.75
2023-04-17T07:25:11.133Z,2.25
2023-04-17T07:26:11.199Z,1.53
2023-04-17T07:27:11.268Z,1.53
2023-04-17T07:28:11.305Z,1.46
2023-04-17T07:29:11.761Z,1.71
2023-04-17T07:30:11.469Z,1.86
2023-04-17T07:31:11.466Z,2.18
2023-04-17T07:32:11.480Z,2.09
2023-04-17T07:33:11.680Z,2.28
2023-04-17T07:34:11.608Z,1.92
2023-04-17T07:35:11.660Z,1.94
2023-04-17T07:36:11.690Z,1.99
2023-04-17T07:37:11.706Z,2.84
2023-04-17T07:38:11.760Z,1.92
2023-04-17T07:39:12.066Z,2.73
2023-04-17T07:40:11.806Z,1.83
2023-04-17T07:41:11.816Z,2.21
2023-04-17T07:42:11.910Z,2.31
2023-04-17T07:43:11.908Z,2.09
2023-04-17T07:44:12.050Z,2.42
2023-04-17T07:45:11.928Z,3.00
2023-04-17T07:46:11.938Z,2.69
2023-04-17T07:47:12.153Z,3.64
2023-04-17T07:48:11.983Z,2.32
2023-04-17T07:49:12.493Z,1.91
2023-04-17T07:50:12.032Z,2.01
2023-04-17T07:51:12.020Z,2.34
2023-04-17T07:52:12.033Z,2.38
2023-04-17T07:53:12.069Z,2.66
2023-04-17T07:54:12.091Z,2.39
2023-04-17T07:55:12.087Z,2.30
2023-04-17T07:56:12.811Z,2.62
2023-04-17T07:57:12.110Z,2.54
2023-04-17T07:58:12.125Z,3.33
2023-04-17T07:59:12.754Z,2.14
2023-04-17T08:00:12.280Z,2.06
2023-04-17T08:01:12.340Z,2.80
2023-04-17T08:02:12.642Z,2.33
2023-04-17T08:03:12.563Z,2.84
2023-04-17T08:04:12.584Z,2.61
2023-04-17T08:05:12.555Z,2.21
2023-04-17T08:06:14.636Z,2.39
2023-04-17T08:07:13.045Z,3.09
2023-04-17T08:08:12.757Z,2.14
2023-04-17T08:09:13.983Z,2.48
2023-04-17T08:10:12.819Z,2.81
2023-04-17T08:11:13.549Z,2.70
2023-04-17T08:12:13.031Z,2.82
2023-04-17T08:13:12.972Z,2.90
2023-04-17T08:14:13.047Z,2.59
2023-04-17T08:15:13.098Z,2.99
2023-04-17T08:16:13.190Z,2.60
2023-04-17T08:17:13.251Z,2.83
2023-04-17T08:18:13.230Z,2.60
2023-04-17T08:19:14.239Z,2.53
2023-04-17T08:20:13.370Z,3.02
2023-04-17T08:21:13.446Z,3.17
2023-04-17T08:22:13.477Z,2.97
2023-04-17T08:23:13.495Z,3.62
2023-04-17T08:24:13.571Z,3.25
2023-04-17T08:25:13.661Z,3.05
2023-04-17T08:26:13.685Z,3.08
2023-04-17T08:27:13.702Z,3.01
2023-04-17T08:28:13.749Z,3.15
2023-04-17T08:29:14.297Z,3.45
2023-04-17T08:30:16.979Z,2.26
2023-04-17T08:31:14.638Z,3.04
2023-04-17T08:32:15.492Z,2.77
2023-04-17T08:33:13.859Z,2.52
2023-04-17T08:34:15.274Z,6.13
2023-04-17T08:35:14.126Z,2.28
2023-04-17T08:36:13.834Z,3.49
2023-04-17T08:37:14.041Z,3.37
2023-04-17T08:38:13.840Z,2.62
2023-04-17T08:39:14.050Z,2.90
2023-04-17T08:40:14.060Z,3.19
2023-04-17T08:41:13.830Z,2.83
2023-04-17T08:42:18.440Z,2.84
2023-04-17T08:43:13.771Z,3.12
2023-04-17T08:44:13.781Z,3.04
2023-04-17T08:45:13.815Z,2.89
2023-04-17T08:46:13.865Z,2.82
2023-04-17T08:47:15.632Z,3.20
2023-04-17T08:48:14.627Z,3.49
2023-04-17T08:49:14.146Z,2.64
2023-04-17T08:50:14.666Z,3.85
2023-04-17T08:51:14.059Z,3.28
2023-04-17T08:52:14.617Z,3.19
2023-04-17T08:53:14.171Z,2.56
2023-04-17T08:54:14.270Z,2.98
2023-04-17T08:55:14.273Z,3.63
2023-04-17T08:56:14.240Z,3.62
2023-04-17T08:57:14.589Z,2.44
2023-04-17T08:58:14.384Z,2.08
2023-04-17T08:59:14.519Z,2.76
2023-04-17T09:00:14.378Z,2.90
2023-04-17T09:01:14.421Z,4.11
2023-04-17T09:02:14.593Z,3.32
2023-04-17T09:03:14.530Z,3.36
2023-04-17T09:04:14.718Z,2.38
2023-04-17T09:05:14.711Z,2.90
2023-04-17T09:06:14.392Z,4.48
2023-04-17T09:07:14.421Z,2.74
2023-04-17T09:08:14.464Z,3.30
2023-04-17T09:09:14.422Z,2.40
2023-04-17T09:10:14.482Z,3.30
2023-04-17T09:11:14.462Z,3.58
2023-04-17T09:12:14.521Z,3.45
2023-04-17T09:13:14.589Z,2.57
2023-04-17T09:14:14.525Z,2.94
2023-04-17T09:15:14.546Z,3.35
2023-04-17T09:16:14.655Z,2.56
2023-04-17T09:17:14.606Z,2.56
2023-04-17T09:18:14.715Z,2.85
2023-04-17T09:19:14.709Z,3.07
2023-04-17T09:20:14.810Z,2.65
2023-04-17T09:21:14.836Z,2.51
2023-04-17T09:22:14.948Z,3.10
2023-04-17T09:23:14.960Z,2.54
2023-04-17T09:24:15.046Z,3.26
2023-04-17T09:25:15.035Z,2.83
2023-04-17T09:26:15.077Z,2.24
2023-04-17T09:27:15.161Z,2.26
2023-04-17T09:28:15.204Z,2.01
2023-04-17T09:29:15.351Z,2.28
2023-04-17T09:30:15.316Z,2.36
2023-04-17T09:31:15.375Z,2.06
2023-04-17T09:32:15.334Z,1.88
2023-04-17T09:33:15.617Z,2.11
2023-04-17T09:34:15.342Z,1.59
2023-04-17T09:35:15.345Z,1.49
2023-04-17T09:36:15.340Z,1.67
2023-04-17T09:37:15.358Z,1.87
2023-04-17T09:38:15.388Z,2.06
2023-04-17T09:39:15.380Z,1.73
2023-04-17T09:40:15.593Z,1.62
2023-04-17T09:41:15.413Z,1.75
2023-04-17T09:42:15.447Z,1.82
2023-04-17T09:43:15.480Z,1.49
2023-04-17T09:44:15.517Z,1.57
2023-04-17T09:45:15.568Z,1.44
2023-04-17T09:46:15.591Z,1.71
2023-04-17T09:47:15.591Z,1.67
2023-04-17T09:48:15.645Z,1.72
2023-04-17T09:49:15.682Z,1.44
2023-04-17T09:50:15.748Z,1.34
2023-04-17T09:51:15.753Z,1.41
2023-04-17T09:52:15.828Z,1.40
2023-04-17T09:53:15.823Z,1.58
2023-04-17T09:54:15.976Z,1.41
2023-04-17T09:55:16.027Z,1.16
2023-04-17T09:56:15.957Z,1.43
2023-04-17T09:57:16.020Z,1.44
2023-04-17T09:58:16.098Z,1.70
2023-04-17T09:59:16.143Z,1.48
2023-04-17T10:00:16.571Z,1.61
2023-04-17T10:01:16.249Z,1.36
2023-04-17T10:02:16.378Z,1.43
2023-04-17T10:03:16.477Z,1.63
2023-04-17T10:04:16.578Z,1.64
2023-04-17T10:05:16.374Z,1.92
2023-04-17T10:06:16.543Z,1.49
2023-04-17T10:07:16.667Z,1.60
2023-04-17T10:08:16.596Z,1.39
2023-04-17T10:09:16.588Z,1.58
2023-04-17T10:10:17.679Z,1.45
2023-04-17T10:11:16.722Z,1.38
2023-04-17T10:12:16.758Z,1.43
2023-04-17T10:13:16.779Z,1.04
2023-04-17T10:14:16.838Z,1.38
2023-04-17T10:15:17.015Z,1.55
2023-04-17T10:16:17.067Z,1.22
2023-04-17T10:17:17.009Z,1.30
2023-04-17T10:18:17.075Z,1.37
2023-04-17T10:19:17.139Z,1.28
2023-04-17T10:20:17.285Z,1.60
2023-04-17T10:21:17.210Z,1.31
2023-04-17T10:22:17.250Z,1.93
2023-04-17T10:23:17.657Z,1.33
2023-04-17T10:24:17.379Z,1.34
2023-04-17T10:25:17.711Z,1.39
2023-04-17T10:26:17.649Z,4.12
2023-04-17T10:27:17.527Z,1.33
2023-04-17T10:28:17.589Z,1.49
2023-04-17T10:29:17.615Z,1.48
2023-04-17T10:30:17.709Z,1.78
2023-04-17T10:31:17.810Z,1.61
2023-04-17T10:32:17.985Z,2.08
2023-04-17T10:33:18.162Z,2.14
2023-04-17T10:34:18.020Z,2.52
2023-04-17T10:35:18.003Z,2.02
2023-04-17T10:36:18.056Z,2.05
2023-04-17T10:37:18.095Z,2.01
2023-04-17T10:38:18.160Z,2.20
2023-04-17T10:39:18.203Z,2.17
2023-04-17T10:40:18.243Z,2.21
2023-04-17T10:41:18.619Z,2.05
2023-04-17T10:42:18.428Z,2.15
2023-04-17T10:43:18.636Z,1.95
2023-04-17T10:44:18.516Z,2.17
2023-04-17T10:45:18.553Z,2.74
2023-04-17T10:46:19.177Z,2.22
2023-04-17T10:47:19.645Z,2.65
2023-04-17T10:48:18.799Z,2.07
2023-04-17T10:49:18.881Z,2.55
2023-04-17T10:50:18.904Z,2.47
2023-04-17T10:51:19.120Z,2.19
2023-04-17T10:52:18.978Z,2.47
2023-04-17T10:53:19.195Z,2.36
2023-04-17T10:54:19.098Z,2.34
2023-04-17T10:55:19.144Z,2.41
2023-04-17T10:56:19.219Z,2.45
2023-04-17T10:57:19.238Z,2.15
2023-04-17T10:58:19.329Z,2.23
2023-04-17T10:59:19.374Z,2.35
2023-04-17T11:00:19.438Z,2.15
2023-04-17T11:01:19.704Z,2.76
2023-04-17T11:02:19.559Z,2.28
2023-04-17T11:03:19.811Z,1.84
2023-04-17T11:04:19.733Z,2.49
2023-04-17T11:05:19.678Z,2.63
2023-04-17T11:06:19.779Z,2.68
2023-04-17T11:07:19.823Z,2.35
2023-04-17T11:08:19.899Z,2.10
2023-04-17T11:09:19.956Z,2.83
2023-04-17T11:10:20.025Z,2.10
2023-04-17T11:11:30.466Z,2.38
2023-04-17T11:12:21.083Z,2.83
2023-04-17T11:13:20.101Z,2.36
2023-04-17T11:14:20.044Z,2.00
2023-04-17T11:15:20.026Z,2.06
2023-04-17T11:16:20.091Z,2.55
2023-04-17T11:17:20.150Z,1.97
2023-04-17T11:18:20.033Z,2.36
2023-04-17T11:19:20.066Z,2.15
2023-04-17T11:20:20.066Z,1.96
2023-04-17T11:21:20.183Z,2.16
2023-04-17T11:22:20.142Z,2.68
2023-04-17T11:23:20.135Z,2.23
2023-04-17T11:24:20.096Z,2.15
2023-04-17T11:25:20.123Z,2.24
2023-04-17T11:26:20.162Z,2.02
2023-04-17T11:27:20.133Z,2.00
2023-04-17T11:28:20.216Z,2.00
2023-04-17T11:29:20.257Z,1.96
2023-04-17T11:30:20.254Z,2.03
2023-04-17T11:31:21.585Z,2.46
2023-04-17T11:32:20.266Z,1.98
2023-04-17T11:33:20.268Z,2.22
2023-04-17T11:34:20.381Z,2.84
2023-04-17T11:35:20.300Z,2.35
2023-04-17T11:36:20.297Z,1.89
2023-04-17T11:37:20.320Z,2.10
2023-04-17T11:38:20.346Z,1.78
2023-04-17T11:39:21.123Z,1.57
2023-04-17T11:40:20.388Z,2.46
2023-04-17T11:41:20.391Z,3.39
2023-04-17T11:42:20.405Z,2.05
2023-04-17T11:43:20.428Z,2.44
2023-04-17T11:44:20.445Z,2.34
2023-04-17T11:45:20.469Z,1.99
2023-04-17T11:46:20.504Z,2.34
2023-04-17T11:47:20.551Z,1.68
2023-04-17T11:48:20.527Z,2.00
2023-04-17T11:49:20.609Z,1.57
2023-04-17T11:50:20.716Z,1.96
2023-04-17T11:51:20.835Z,1.83
2023-04-17T11:52:20.800Z,1.88
2023-04-17T11:53:20.868Z,1.90
2023-04-17T11:54:20.792Z,2.07
2023-04-17T11:55:20.858Z,1.96
2023-04-17T11:56:20.846Z,2.44
2023-04-17T11:57:20.903Z,1.60
2023-04-17T11:58:20.991Z,1.79
2023-04-17T11:59:20.973Z,1.78
2023-04-17T12:00:20.968Z,1.31
2023-04-17T12:01:20.984Z,1.92
2023-04-17T12:02:21.067Z,1.79
2023-04-17T12:03:21.100Z,1.69
2023-04-17T12:04:21.150Z,1.77
2023-04-17T12:05:21.468Z,1.41
2023-04-17T12:06:21.057Z,3.43
2023-04-17T12:07:21.097Z,1.40
2023-04-17T12:08:21.008Z,1.81
2023-04-17T12:09:21.025Z,1.75
2023-04-17T12:10:21.026Z,1.92
2023-04-17T12:11:21.112Z,2.05
2023-04-17T12:12:21.119Z,2.28
2023-04-17T12:13:21.092Z,2.17
2023-04-17T12:14:21.111Z,2.10
2023-04-17T12:15:21.099Z,1.72
2023-04-17T12:16:21.154Z,1.93
2023-04-17T12:17:21.199Z,1.81
2023-04-17T12:18:21.251Z,2.03
2023-04-17T12:19:21.422Z,1.39
2023-04-17T12:20:21.339Z,1.80
2023-04-17T12:21:21.317Z,1.94
2023-04-17T12:22:21.329Z,1.66
2023-04-17T12:23:21.345Z,1.62
2023-04-17T12:24:21.324Z,1.57
2023-04-17T12:25:21.382Z,1.31
2023-04-17T12:26:21.648Z,1.25
2023-04-17T12:27:21.409Z,1.47
2023-04-17T12:28:21.426Z,1.65
2023-04-17T12:29:29.465Z,1.93
2023-04-17T12:30:22.511Z,1.13
2023-04-17T12:31:21.513Z,1.34
2023-04-17T12:32:21.525Z,1.79
2023-04-17T12:33:21.478Z,1.93
2023-04-17T12:34:21.472Z,1.81
2023-04-17T12:35:21.447Z,1.41
2023-04-17T12:36:21.456Z,1.55
2023-04-17T12:37:21.435Z,1.61
2023-04-17T12:38:21.434Z,1.53
2023-04-17T12:39:21.432Z,1.56
2023-04-17T12:40:24.333Z,1.59
2023-04-17T12:41:21.416Z,1.48
2023-04-17T12:42:21.434Z,1.52
2023-04-17T12:43:21.399Z,1.54
2023-04-17T12:44:21.370Z,1.46
2023-04-17T12:45:21.381Z,1.79
2023-04-17T12:46:21.461Z,1.43
2023-04-17T12:47:21.383Z,1.56
2023-04-17T12:48:21.364Z,2.04
2023-04-17T12:49:21.348Z,1.82
2023-04-17T12:50:21.322Z,1.57
2023-04-17T12:51:21.331Z,1.74
2023-04-17T12:52:21.326Z,1.68
2023-04-17T12:53:21.325Z,1.32
2023-04-17T12:54:21.292Z,1.41
2023-04-17T12:55:21.283Z,1.28
2023-04-17T12:56:21.286Z,1.53
2023-04-17T12:57:21.269Z,1.73
2023-04-17T12:58:21.268Z,1.60
2023-04-17T12:59:21.274Z,1.96
2023-04-17T13:00:21.284Z,1.37
2023-04-17T13:01:21.300Z,1.07
2023-04-17T13:02:21.447Z,1.76
2023-04-17T13:03:21.465Z,1.22
2023-04-17T13:04:21.565Z,1.37
2023-04-17T13:05:21.233Z,1.50
2023-04-17T13:06:21.205Z,1.73
2023-04-17T13:07:21.196Z,1.48
2023-04-17T13:08:21.184Z,1.66
2023-04-17T13:09:21.182Z,1.63
2023-04-17T13:10:21.174Z,2.02
2023-04-17T13:11:21.178Z,1.66
2023-04-17T13:12:21.172Z,1.43
2023-04-17T13:13:21.153Z,1.53
2023-04-17T13:14:21.173Z,1.45
2023-04-17T13:15:21.154Z,1.56
2023-04-17T13:16:21.234Z,1.61
2023-04-17T13:17:21.249Z,1.59
2023-04-17T13:18:21.129Z,1.58
2023-04-17T13:19:21.093Z,1.54